createdAt,value
2019-03-12T00:00:51.089Z,100241.66
2019-03-12T00:03:22.070Z,100252.31
2019-03-12T00:05:53.062Z,100259.89
2019-03-12T00:08:23.975Z,100277.45
2019-03-12T00:10:55.044Z,100279.80
2019-03-12T00:13:25.981Z,100275.27
2019-03-12T00:15:56.978Z,100261.50
2019-03-12T00:18:28.563Z,100266.86
2019-03-12T00:20:59.817Z,100264.75
2019-03-12T00:23:30.833Z,100281.93
2019-03-12T00:26:01.800Z,100278.50
2019-03-12T00:28:32.793Z,100289.80
2019-03-12T00:31:03.785Z,100294.06
2019-03-12T00:33:34.798Z,100307.33
2019-03-12T00:36:05.870Z,100310.89
2019-03-12T00:38:36.925Z,100313.95
2019-03-12T00:41:07.855Z,100324.37
2019-03-12T00:43:38.715Z,100334.80
2019-03-12T00:46:09.743Z,100331.91
2019-03-12T00:48:40.673Z,100335.70
2019-03-12T00:51:11.605Z,100332.53
2019-03-12T00:53:42.559Z,100327.93
2019-03-12T00:56:13.640Z,100320.06
2019-03-12T00:58:44.562Z,100327.84
2019-03-12T01:01:15.570Z,100327.76
2019-03-12T01:03:46.505Z,100329.02
2019-03-12T01:06:17.448Z,100325.25
2019-03-12T01:08:48.380Z,100332.86
2019-03-12T01:11:19.315Z,100337.80
2019-03-12T01:13:50.254Z,100342.27
2019-03-12T01:16:21.193Z,100337.97
2019-03-12T01:18:52.129Z,100336.28
2019-03-12T01:21:23.089Z,100336.28
2019-03-12T01:23:53.941Z,100343.57
2019-03-12T01:26:24.816Z,100345.19
2019-03-12T01:28:55.789Z,100340.70
2019-03-12T01:31:26.743Z,100352.51
2019-03-12T01:33:57.585Z,100359.63
2019-03-12T01:36:28.438Z,100368.53
2019-03-12T01:38:59.515Z,100372.20
2019-03-12T01:41:30.486Z,100378.95
2019-03-12T01:44:01.424Z,100379.40
2019-03-12T01:46:32.360Z,100387.43
2019-03-12T01:49:03.350Z,100386.80
2019-03-12T01:51:34.418Z,100390.86
2019-03-12T01:54:06.357Z,100380.03
2019-03-12T01:56:37.362Z,100392.53
2019-03-12T01:59:08.395Z,100395.34
2019-03-12T02:01:39.493Z,100393.17
2019-03-12T02:04:10.470Z,100404.25
2019-03-12T02:06:41.318Z,100398.72
2019-03-12T02:09:12.190Z,100396.53
2019-03-12T02:11:43.185Z,100401.98
2019-03-12T02:14:24.792Z,100398.92
2019-03-12T02:16:55.657Z,100391.17
2019-03-12T02:19:26.676Z,100399.80
2019-03-12T02:21:57.773Z,100388.88
2019-03-12T02:24:28.804Z,100383.52
2019-03-12T02:26:59.823Z,100396.80
2019-03-12T02:29:30.819Z,100402.16
2019-03-12T02:32:01.772Z,100407.89
2019-03-12T02:34:33.686Z,100403.23
2019-03-12T02:37:05.300Z,100403.23
2019-03-12T02:39:36.213Z,100395.98
2019-03-12T02:42:07.159Z,100397.70
2019-03-12T02:44:38.119Z,100413.70
2019-03-12T02:47:08.968Z,100416.06
2019-03-12T02:49:39.869Z,100419.38
2019-03-12T02:52:10.874Z,100423.72
2019-03-12T02:54:41.956Z,100420.05
2019-03-12T02:57:12.939Z,100421.91
2019-03-12T02:59:43.842Z,100430.64
2019-03-12T03:02:14.758Z,100436.14
2019-03-12T03:04:45.727Z,100432.11
2019-03-12T03:07:18.284Z,100436.32
2019-03-12T03:09:49.236Z,100432.70
2019-03-12T03:12:20.175Z,100434.34
2019-03-12T03:14:51.182Z,100444.55
2019-03-12T03:17:22.170Z,100441.16
2019-03-12T03:19:53.191Z,100441.69
2019-03-12T03:22:24.126Z,100452.77
2019-03-12T03:24:55.072Z,100456.59
2019-03-12T03:27:29.347Z,100457.92
2019-03-12T03:33:05.888Z,100465.77
2019-03-12T03:35:36.932Z,100476.74
2019-03-12T03:38:07.870Z,100484.82
2019-03-12T03:40:38.780Z,100484.06
2019-03-12T03:43:09.912Z,100487.05
2019-03-12T03:45:40.955Z,100481.07
2019-03-12T03:48:12.036Z,100477.62
2019-03-12T03:50:43.077Z,100486.67
2019-03-12T03:53:14.099Z,100480.81
2019-03-12T03:55:45.032Z,100484.69
2019-03-12T03:58:15.989Z,100495.09
2019-03-12T04:00:47.007Z,100497.70
2019-03-12T04:03:18.035Z,100494.59
2019-03-12T04:05:49.075Z,100503.43
2019-03-12T04:08:20.057Z,100497.95
2019-03-12T04:10:51.000Z,100498.98
2019-03-12T04:13:21.858Z,100497.02
2019-03-12T04:15:52.829Z,100511.21
2019-03-12T04:18:23.810Z,100516.30
2019-03-12T04:20:54.812Z,100524.28
2019-03-12T04:23:25.788Z,100529.83
2019-03-12T04:25:56.725Z,100541.69
2019-03-12T04:28:27.736Z,100541.26
2019-03-12T04:30:58.775Z,100544.70
2019-03-12T04:34:00.661Z,100543.98
2019-03-12T04:36:32.806Z,100547.86
2019-03-12T04:39:05.356Z,100544.88
2019-03-12T04:41:37.984Z,100546.59
2019-03-12T04:44:08.843Z,100556.67
2019-03-12T04:46:39.974Z,100563.30
2019-03-12T04:49:11.033Z,100574.91
2019-03-12T04:51:42.093Z,100584.36
2019-03-12T04:54:12.987Z,100583.92
2019-03-12T04:56:43.940Z,100585.00
2019-03-12T04:59:14.794Z,100585.96
2019-03-12T05:01:45.715Z,100597.19
2019-03-12T05:04:16.760Z,100601.09
2019-03-12T05:06:47.798Z,100610.84
2019-03-12T05:09:18.648Z,100613.40
2019-03-12T05:11:49.532Z,100628.02
2019-03-12T05:14:26.120Z,100629.30
2019-03-12T05:17:00.444Z,100625.19
2019-03-12T05:19:31.530Z,100619.90
2019-03-12T05:22:02.465Z,100622.77
2019-03-12T05:24:33.490Z,100628.90
2019-03-12T05:27:04.547Z,100631.90
2019-03-12T05:29:35.468Z,100633.37
2019-03-12T05:32:09.557Z,100631.19
2019-03-12T05:34:42.296Z,100627.13
2019-03-12T05:37:13.397Z,100638.34
2019-03-12T05:39:44.476Z,100631.91
2019-03-12T05:42:15.492Z,100637.06
2019-03-12T05:44:47.392Z,100637.18
2019-03-12T05:47:19.566Z,100644.34
2019-03-12T05:49:51.336Z,100647.29
2019-03-12T05:52:22.213Z,100641.20
2019-03-12T05:54:53.071Z,100652.59
2019-03-12T06:00:27.851Z,100653.06
2019-03-12T06:02:58.841Z,100661.63
2019-03-12T06:05:29.786Z,100664.95
2019-03-12T06:08:00.804Z,100666.30
2019-03-12T06:10:32.037Z,100662.38
2019-03-12T06:13:03.338Z,100669.86
2019-03-12T06:15:34.473Z,100670.59
2019-03-12T06:18:05.526Z,100679.28
2019-03-12T06:20:36.762Z,100674.78
2019-03-12T06:23:08.412Z,100671.94
2019-03-12T06:25:39.491Z,100669.75
2019-03-12T06:28:10.664Z,100674.20
2019-03-12T06:30:44.312Z,100678.88
2019-03-12T06:33:17.268Z,100684.34
2019-03-12T06:35:55.556Z,100684.28
2019-03-12T06:38:31.660Z,100690.04
2019-03-12T06:41:04.450Z,100681.00
2019-03-12T06:43:53.525Z,100679.86
2019-03-12T06:46:38.315Z,100687.13
2019-03-12T06:49:13.641Z,100693.72
2019-03-12T06:51:52.041Z,100691.33
2019-03-12T06:54:24.729Z,100690.67
2019-03-12T06:57:06.472Z,100698.69
2019-03-12T06:59:39.181Z,100688.28
2019-03-12T07:02:11.857Z,100687.27
2019-03-12T07:04:57.059Z,100690.66
2019-03-12T07:07:48.025Z,100697.25
2019-03-12T07:10:32.889Z,100705.20
2019-03-12T07:13:05.603Z,100700.75
2019-03-12T07:15:40.932Z,100698.00
2019-03-12T07:18:13.625Z,100699.61
2019-03-12T07:20:48.981Z,100707.19
2019-03-12T07:23:21.745Z,100707.80
2019-03-12T07:25:56.938Z,100711.73
2019-03-12T07:28:50.279Z,100710.45
2019-03-12T07:31:28.434Z,100717.01
2019-03-12T07:34:17.952Z,100709.08
2019-03-12T07:36:56.133Z,100713.95
2019-03-12T07:39:28.632Z,100706.06
2019-03-12T07:42:03.898Z,100707.58
2019-03-12T07:44:52.826Z,100711.56
2019-03-12T07:47:43.445Z,100702.08
2019-03-12T07:50:21.993Z,100703.22
2019-03-12T07:52:54.510Z,100693.55
2019-03-12T07:55:29.721Z,100694.97
2019-03-12T07:58:01.394Z,100694.08
2019-03-12T08:00:49.957Z,100698.93
2019-03-12T08:03:31.299Z,100699.69
2019-03-12T08:06:22.324Z,100693.05
2019-03-12T08:09:04.162Z,100692.86
2019-03-12T08:11:41.261Z,100685.11
2019-03-12T08:14:13.914Z,100673.82
2019-03-12T08:16:46.420Z,100675.73
2019-03-12T08:19:35.161Z,100679.15
2019-03-12T08:22:13.381Z,100669.06
2019-03-12T08:24:45.936Z,100665.18
2019-03-12T08:27:26.130Z,100667.17
2019-03-12T08:30:16.728Z,100666.51
2019-03-12T08:32:49.391Z,100670.60
2019-03-12T08:35:24.799Z,100667.37
2019-03-12T08:38:03.567Z,100658.02
2019-03-12T08:40:52.050Z,100658.16
2019-03-12T08:43:16.310Z,100653.75
2019-03-12T08:45:49.834Z,100656.63
2019-03-12T08:48:27.516Z,100661.55
2019-03-12T08:51:05.926Z,100665.31
2019-03-12T08:53:41.593Z,100665.69
2019-03-12T08:56:17.910Z,100661.27
2019-03-12T08:59:08.704Z,100662.85
2019-03-12T09:01:43.123Z,100650.64
2019-03-12T09:04:18.241Z,100652.89
2019-03-12T09:06:50.960Z,100654.91
2019-03-12T09:09:24.080Z,100653.56
2019-03-12T09:12:08.604Z,100649.65
2019-03-12T09:14:47.007Z,100653.11
2019-03-12T09:17:37.816Z,100653.22
2019-03-12T09:20:27.893Z,100651.72
2019-03-12T09:23:00.460Z,100655.66
2019-03-12T09:25:36.175Z,100652.09
2019-03-12T09:28:08.803Z,100655.28
2019-03-12T09:30:51.519Z,100646.11
2019-03-12T09:33:35.937Z,100641.45
2019-03-12T09:36:08.597Z,100643.25
2019-03-12T09:38:43.766Z,100636.89
2019-03-12T09:41:28.389Z,100636.55
2019-03-12T09:44:00.968Z,100641.95
2019-03-12T09:46:45.537Z,100633.58
2019-03-12T09:49:21.380Z,100630.88
2019-03-12T09:51:56.736Z,100631.50
2019-03-12T09:54:44.685Z,100649.94
2019-03-12T09:57:26.340Z,100636.06
2019-03-12T10:00:16.029Z,100621.60
2019-03-12T10:02:47.330Z,100624.16
2019-03-12T10:05:19.919Z,100626.77
2019-03-12T10:08:01.714Z,100631.04
2019-03-12T10:10:40.446Z,100624.18
2019-03-12T10:13:28.340Z,100628.20
2019-03-12T10:16:01.039Z,100627.98
2019-03-12T10:18:33.627Z,100623.20
2019-03-12T10:21:08.837Z,100612.76
2019-03-12T10:23:41.819Z,100636.89
2019-03-12T10:26:19.974Z,100612.31
2019-03-12T10:28:52.633Z,100611.06
2019-03-12T10:31:28.126Z,100610.31
2019-03-12T10:34:10.022Z,100613.25
2019-03-12T10:36:45.411Z,100601.77
2019-03-12T10:39:55.488Z,100605.68
2019-03-12T10:42:40.391Z,100611.55
2019-03-12T10:45:29.912Z,100597.72
2019-03-12T10:48:01.929Z,100605.06
2019-03-12T10:50:33.019Z,100618.30
2019-03-12T10:53:04.065Z,100598.09
2019-03-12T10:55:35.136Z,100598.50
2019-03-12T10:58:06.140Z,100599.80
2019-03-12T11:00:37.800Z,100584.35
2019-03-12T11:03:08.751Z,100584.35
2019-03-12T11:05:46.004Z,100582.69
2019-03-12T11:08:12.492Z,100580.21
2019-03-12T11:10:43.454Z,100591.04
2019-03-12T11:13:15.087Z,100574.05
2019-03-12T11:15:46.302Z,100585.20
2019-03-12T11:18:17.563Z,100580.30
2019-03-12T11:20:48.554Z,100580.26
2019-03-12T11:23:19.633Z,100573.58
2019-03-12T11:25:50.484Z,100573.58
2019-03-12T11:28:21.408Z,100578.69
2019-03-12T11:30:53.539Z,100581.61
2019-03-12T11:33:24.572Z,100573.57
2019-03-12T11:35:55.757Z,100585.20
2019-03-12T11:38:26.806Z,100575.63
2019-03-12T11:40:57.851Z,100578.23
2019-03-12T11:43:28.885Z,100571.15
2019-03-12T11:45:59.921Z,100577.11
2019-03-12T11:48:30.960Z,100574.38
2019-03-12T11:51:01.947Z,100562.00
2019-03-12T11:53:32.961Z,100556.86
2019-03-12T11:56:04.014Z,100560.34
2019-03-12T11:58:35.211Z,100555.77
2019-03-12T12:01:09.082Z,100558.13
2019-03-12T12:03:40.070Z,100558.44
2019-03-12T12:06:11.917Z,100555.06
2019-03-12T12:08:43.071Z,100559.67
2019-03-12T12:11:15.465Z,100554.81
2019-03-12T12:13:46.538Z,100554.81
2019-03-12T12:16:17.387Z,100566.78
2019-03-12T12:18:48.604Z,100567.65
2019-03-12T12:21:19.587Z,100575.59
2019-03-12T12:23:50.582Z,100579.17
2019-03-12T12:26:21.573Z,100571.98
2019-03-12T12:28:52.668Z,100563.52
2019-03-12T12:31:23.546Z,100588.89
2019-03-12T12:33:54.599Z,100588.89
2019-03-12T12:36:25.639Z,100599.78
2019-03-12T12:38:56.715Z,100566.45
2019-03-12T12:41:27.658Z,100588.47
2019-03-12T12:43:58.586Z,100585.59
2019-03-12T12:46:30.109Z,100581.25
2019-03-12T12:49:01.078Z,100571.75
2019-03-12T12:51:32.202Z,100585.30
2019-03-12T12:54:03.355Z,100573.53
2019-03-12T12:56:34.423Z,100573.53
2019-03-12T12:59:05.433Z,100574.00
2019-03-12T13:01:36.502Z,100574.08
2019-03-12T13:04:08.423Z,100568.83
2019-03-12T13:06:39.476Z,100566.13
2019-03-12T13:09:10.602Z,100566.13
2019-03-12T13:11:42.973Z,100579.33
2019-03-12T13:14:13.949Z,100571.16
2019-03-12T13:16:44.812Z,100571.16
2019-03-12T13:19:15.914Z,100574.59
2019-03-12T13:21:47.024Z,100577.42
2019-03-12T13:24:17.933Z,100574.76
2019-03-12T13:26:49.024Z,100588.61
2019-03-12T13:29:20.080Z,100585.77
2019-03-12T13:31:50.965Z,100585.77
2019-03-12T13:34:21.818Z,100574.88
2019-03-12T13:36:52.709Z,100567.95
2019-03-12T13:39:24.890Z,100567.95
2019-03-12T13:41:55.911Z,100584.91
2019-03-12T13:44:26.869Z,100582.30
2019-03-12T13:46:57.804Z,100577.84
2019-03-12T13:49:28.838Z,100572.70
2019-03-12T13:52:00.149Z,100576.02
2019-03-12T13:54:31.254Z,100581.25
2019-03-12T13:57:02.185Z,100578.03
2019-03-12T13:59:33.046Z,100579.13
2019-03-12T14:02:04.186Z,100575.98
2019-03-12T14:04:36.383Z,100585.41
2019-03-12T14:07:07.242Z,100585.91
2019-03-12T14:09:38.373Z,100586.36
2019-03-12T14:12:09.348Z,100584.79
2019-03-12T14:14:40.482Z,100599.65
2019-03-12T14:17:11.461Z,100606.77
2019-03-12T14:19:42.935Z,100583.02
2019-03-12T14:22:13.918Z,100583.02
2019-03-12T14:24:44.779Z,100591.47
2019-03-12T14:27:15.799Z,100588.27
2019-03-12T14:29:46.731Z,100599.55
2019-03-12T14:32:18.404Z,100599.46
2019-03-12T14:34:49.907Z,100600.17
2019-03-12T14:37:20.944Z,100604.71
2019-03-12T14:39:51.966Z,100605.05
2019-03-12T14:42:22.975Z,100605.05
2019-03-12T14:44:54.017Z,100605.92
2019-03-12T14:47:24.870Z,100613.15
2019-03-12T14:49:55.801Z,100613.15
2019-03-12T14:52:26.823Z,100614.86
2019-03-12T14:54:59.772Z,100616.09
2019-03-12T14:57:30.617Z,100613.30
2019-03-12T15:00:01.593Z,100629.45
2019-03-12T15:02:34.036Z,100636.55
2019-03-12T15:05:07.483Z,100636.05
2019-03-12T15:07:38.507Z,100638.14
2019-03-12T15:10:11.208Z,100633.50
2019-03-12T15:12:42.185Z,100635.55
2019-03-12T15:15:14.384Z,100643.39
2019-03-12T15:17:45.303Z,100647.43
2019-03-12T15:20:16.348Z,100659.45
2019-03-12T15:22:47.203Z,100654.08
2019-03-12T15:25:18.266Z,100655.42
2019-03-12T15:27:49.296Z,100661.04
2019-03-12T15:30:22.585Z,100665.08
2019-03-12T15:32:53.547Z,100668.14
2019-03-12T15:35:24.467Z,100672.55
2019-03-12T15:37:55.377Z,100675.25
2019-03-12T15:40:26.349Z,100676.22
2019-03-12T15:42:57.389Z,100682.35
2019-03-12T15:45:28.325Z,100689.55
2019-03-12T15:47:59.414Z,100686.48
2019-03-12T15:50:30.387Z,100683.05
2019-03-12T15:53:01.407Z,100686.12
2019-03-12T15:55:32.702Z,100691.84
2019-03-12T15:58:03.666Z,100689.75
2019-03-12T16:00:34.579Z,100706.27
2019-03-12T16:03:05.683Z,100704.81
2019-03-12T16:05:36.673Z,100699.55
2019-03-12T16:08:07.721Z,100700.28
2019-03-12T16:10:38.645Z,100699.55
2019-03-12T16:13:10.747Z,100701.85
2019-03-12T16:15:41.604Z,100710.19
2019-03-12T16:18:14.521Z,100708.92
2019-03-12T16:20:45.441Z,100708.34
2019-03-12T16:23:16.492Z,100720.92
2019-03-12T16:25:47.535Z,100723.03
2019-03-12T16:28:18.798Z,100733.98
2019-03-12T16:30:50.017Z,100734.36
2019-03-12T16:33:21.366Z,100736.06
2019-03-12T16:35:52.642Z,100736.77
2019-03-12T16:38:24.038Z,100738.13
2019-03-12T16:40:55.361Z,100738.88
2019-03-12T16:43:27.016Z,100735.95
2019-03-12T16:45:58.385Z,100736.98
2019-03-12T16:48:29.600Z,100727.69
2019-03-12T16:51:00.561Z,100728.78
2019-03-12T16:53:31.684Z,100744.75
2019-03-12T16:56:02.938Z,100745.87
2019-03-12T16:58:34.393Z,100748.16
2019-03-12T17:01:05.673Z,100756.98
2019-03-12T17:03:36.874Z,100750.01
2019-03-12T17:06:08.275Z,100754.11
2019-03-12T17:08:39.666Z,100756.20
2019-03-12T17:11:11.049Z,100756.45
2019-03-12T17:13:42.445Z,100752.27
2019-03-12T17:16:14.008Z,100762.48
2019-03-12T17:18:45.315Z,100755.05
2019-03-12T17:21:16.641Z,100752.58
2019-03-12T17:23:48.006Z,100757.45
2019-03-12T17:26:19.434Z,100751.70
2019-03-12T17:28:50.774Z,100746.70
2019-03-12T17:31:22.155Z,100753.64
2019-03-12T17:33:53.469Z,100754.70
2019-03-12T17:36:24.810Z,100757.67
2019-03-12T17:38:56.182Z,100748.30
2019-03-12T17:41:27.309Z,100748.23
2019-03-12T17:43:58.387Z,100763.73
2019-03-12T17:46:29.499Z,100767.42
2019-03-12T17:49:00.551Z,100771.58
2019-03-12T17:51:31.868Z,100764.92
2019-03-12T17:54:03.005Z,100770.70
2019-03-12T17:56:34.501Z,100757.52
2019-03-12T17:59:05.776Z,100763.02
2019-03-12T18:01:37.102Z,100761.88
2019-03-12T18:04:08.446Z,100768.81
2019-03-12T18:06:39.738Z,100762.81
2019-03-12T18:09:11.034Z,100762.65
2019-03-12T18:11:42.667Z,100761.69
2019-03-12T18:14:14.153Z,100755.22
2019-03-12T18:16:45.530Z,100751.34
2019-03-12T18:19:16.873Z,100751.72
2019-03-12T18:21:48.364Z,100756.00
2019-03-12T18:24:19.619Z,100759.95
2019-03-12T18:26:51.067Z,100754.79
2019-03-12T18:29:23.521Z,100762.13
2019-03-12T18:31:54.820Z,100760.54
2019-03-12T18:34:26.119Z,100759.63
2019-03-12T18:36:58.345Z,100757.19
2019-03-12T18:39:29.677Z,100770.62
2019-03-12T18:42:01.104Z,100769.74
2019-03-12T18:44:32.477Z,100778.90
2019-03-12T18:47:03.763Z,100779.98
2019-03-12T18:49:35.088Z,100783.64
2019-03-12T18:52:06.415Z,100779.36
2019-03-12T18:54:37.554Z,100772.02
2019-03-12T18:57:08.812Z,100769.95
2019-03-12T18:59:40.280Z,100772.85
2019-03-12T19:02:11.927Z,100769.91
2019-03-12T19:04:43.270Z,100767.81
2019-03-12T19:07:18.328Z,100771.09
2019-03-12T19:09:47.399Z,100768.61
2019-03-12T19:12:18.655Z,100766.68
2019-03-12T19:14:50.195Z,100758.70
2019-03-12T19:17:21.569Z,100746.95
2019-03-12T19:19:52.904Z,100749.52
2019-03-12T19:22:24.422Z,100749.52
2019-03-12T19:24:55.731Z,100745.81
2019-03-12T19:27:26.987Z,100738.68
2019-03-12T19:29:58.595Z,100743.95
2019-03-12T19:32:31.451Z,100742.11
2019-03-12T19:35:02.818Z,100737.70
2019-03-12T19:37:34.355Z,100720.66
2019-03-12T19:40:11.717Z,100708.96
2019-03-12T19:42:44.277Z,100704.80
2019-03-12T19:45:16.288Z,100707.11
2019-03-12T19:47:47.532Z,100698.34
2019-03-12T19:50:22.022Z,100696.59
2019-03-12T19:52:53.445Z,100694.79
2019-03-12T19:55:44.996Z,100696.67
2019-03-12T19:58:16.268Z,100691.89
2019-03-12T20:00:48.304Z,100701.80
2019-03-12T20:03:19.635Z,100709.58
2019-03-12T20:05:50.976Z,100708.98
2019-03-12T20:08:22.219Z,100723.67
2019-03-12T20:11:26.337Z,100719.73
2019-03-12T20:14:16.070Z,100728.98
2019-03-12T20:17:22.879Z,100730.91
2019-03-12T20:20:24.583Z,100733.53
2019-03-12T20:23:31.957Z,100736.20
2019-03-12T20:26:24.127Z,100732.30
2019-03-12T20:29:17.953Z,100734.55
2019-03-12T20:32:21.843Z,100729.61
2019-03-12T20:35:13.053Z,100732.88
2019-03-12T20:38:20.802Z,100724.76
2019-03-12T20:41:07.350Z,100720.88
2019-03-12T20:43:47.551Z,100719.47
2019-03-12T20:46:55.202Z,100724.11
2019-03-12T20:49:55.172Z,100716.65
2019-03-12T20:52:32.206Z,100722.55
2019-03-12T20:55:38.354Z,100720.74
2019-03-12T20:58:31.159Z,100729.84
2019-03-12T21:01:38.935Z,100735.34
2019-03-12T21:04:28.749Z,100734.66
2019-03-12T21:07:24.513Z,100733.51
2019-03-12T21:10:32.656Z,100740.98
2019-03-12T21:13:16.011Z,100736.38
2019-03-12T21:15:55.908Z,100743.08
2019-03-12T21:18:54.148Z,100742.25
2019-03-12T21:21:34.059Z,100737.27
2019-03-12T21:24:20.539Z,100734.91
2019-03-12T21:27:29.773Z,100737.32
2019-03-12T21:29:59.930Z,100732.61
2019-03-12T21:32:31.032Z,100741.22
2019-03-12T21:35:02.209Z,100733.95
2019-03-12T21:37:33.423Z,100737.89
2019-03-12T21:40:07.439Z,100733.34
2019-03-12T21:42:38.494Z,100727.03
2019-03-12T21:45:11.483Z,100732.05
2019-03-12T21:47:42.511Z,100728.75
2019-03-12T21:50:13.570Z,100722.16
2019-03-12T21:52:44.690Z,100722.36
2019-03-12T21:55:15.779Z,100719.56
2019-03-12T21:57:48.132Z,100719.48
2019-03-12T22:00:20.813Z,100722.23
2019-03-12T22:02:51.923Z,100721.44
2019-03-12T22:05:23.019Z,100722.52
2019-03-12T22:07:54.217Z,100727.33
2019-03-12T22:10:25.300Z,100727.21
2019-03-12T22:12:56.568Z,100723.61
2019-03-12T22:15:29.906Z,100730.03
2019-03-12T22:18:01.356Z,100730.03
2019-03-12T22:20:32.438Z,100729.05
2019-03-12T22:23:05.149Z,100728.47
2019-03-12T22:25:37.202Z,100729.89
2019-03-12T22:28:08.385Z,100734.30
2019-03-12T22:30:39.551Z,100727.38
2019-03-12T22:33:10.640Z,100733.19
2019-03-12T22:35:41.672Z,100734.80
2019-03-12T22:38:12.987Z,100736.90
2019-03-12T22:40:43.998Z,100738.39
2019-03-12T22:43:15.009Z,100730.66
2019-03-12T22:45:46.156Z,100731.77
2019-03-12T22:48:17.179Z,100732.73
2019-03-12T22:50:48.222Z,100731.55
2019-03-12T22:53:19.196Z,100729.33
2019-03-12T22:55:50.316Z,100733.16
2019-03-12T22:58:21.461Z,100733.99
2019-03-12T23:01:10.626Z,100735.34
2019-03-12T23:03:59.319Z,100740.50
2019-03-12T23:06:48.178Z,100730.28
2019-03-12T23:09:37.691Z,100733.53
2019-03-12T23:12:10.320Z,100735.80
2019-03-12T23:14:43.045Z,100735.86
2019-03-12T23:17:15.769Z,100732.67
2019-03-12T23:19:48.370Z,100726.31
2019-03-12T23:22:19.658Z,100730.77
2019-03-12T23:24:50.806Z,100728.28
2019-03-12T23:27:22.036Z,100727.01
2019-03-12T23:29:53.209Z,100727.43
2019-03-12T23:32:24.320Z,100729.04
2019-03-12T23:34:55.359Z,100711.50
2019-03-12T23:37:26.432Z,100710.45
2019-03-12T23:39:57.573Z,100718.12
2019-03-12T23:42:28.626Z,100714.11
2019-03-12T23:44:59.658Z,100716.48
2019-03-12T23:47:30.675Z,100710.80
2019-03-12T23:50:01.701Z,100707.02
2019-03-12T23:52:33.721Z,100708.59
2019-03-12T23:55:07.143Z,100709.30
2019-03-12T23:57:38.090Z,100702.91
